sensor_id;sensor_type;location;lat;lon;timestamp;P1;durP1;ratioP1;P2;durP2;ratioP2
43952;SDS011;29608;49.400;11.010;2022-08-19T00:01:44;4.30;;;3.92;;
43952;SDS011;29608;49.400;11.010;2022-08-19T00:04:19;5.30;;;4.75;;
43952;SDS011;29608;49.400;11.010;2022-08-19T00:09:19;4.78;;;4.38;;
43952;SDS011;29608;49.400;11.010;2022-08-19T00:11:50;4.57;;;4.25;;
43952;SDS011;29608;49.400;11.010;2022-08-19T00:14:19;4.80;;;4.40;;
43952;SDS011;29608;49.400;11.010;2022-08-19T00:16:48;5.15;;;4.65;;
43952;SDS011;29608;49.400;11.010;2022-08-19T00:19:17;5.60;;;5.00;;
43952;SDS011;29608;49.400;11.010;2022-08-19T00:21:45;5.20;;;4.80;;
43952;SDS011;29608;49.400;11.010;2022-08-19T00:24:14;5.38;;;4.97;;
43952;SDS011;29608;49.400;11.010;2022-08-19T00:26:43;4.72;;;4.43;;
43952;SDS011;29608;49.400;11.010;2022-08-19T00:29:14;5.00;;;4.60;;
43952;SDS011;29608;49.400;11.010;2022-08-19T00:31:45;4.88;;;4.47;;
43952;SDS011;29608;49.400;11.010;2022-08-19T00:34:16;4.95;;;4.57;;
43952;SDS011;29608;49.400;11.010;2022-08-19T00:36:44;4.60;;;4.20;;
43952;SDS011;29608;49.400;11.010;2022-08-19T00:39:13;5.45;;;4.95;;
43952;SDS011;29608;49.400;11.010;2022-08-19T00:41:43;4.97;;;4.50;;
43952;SDS011;29608;49.400;11.010;2022-08-19T00:44:17;5.20;;;4.80;;
43952;SDS011;29608;49.400;11.010;2022-08-19T00:46:53;5.22;;;4.82;;
43952;SDS011;29608;49.400;11.010;2022-08-19T00:49:25;4.80;;;4.40;;
43952;SDS011;29608;49.400;11.010;2022-08-19T00:51:59;4.85;;;4.53;;
43952;SDS011;29608;49.400;11.010;2022-08-19T00:54:30;4.85;;;4.45;;
43952;SDS011;29608;49.400;11.010;2022-08-19T00:56:59;5.43;;;4.93;;
43952;SDS011;29608;49.400;11.010;2022-08-19T00:59:33;5.50;;;5.00;;
43952;SDS011;29608;49.400;11.010;2022-08-19T01:02:23;5.20;;;4.70;;
43952;SDS011;29608;49.400;11.010;2022-08-19T01:04:53;5.05;;;4.60;;
43952;SDS011;29608;49.400;11.010;2022-08-19T01:07:22;5.50;;;5.10;;
43952;SDS011;29608;49.400;11.010;2022-08-19T01:09:51;5.85;;;5.15;;
43952;SDS011;29608;49.400;11.010;2022-08-19T01:12:19;5.50;;;4.63;;
43952;SDS011;29608;49.400;11.010;2022-08-19T01:14:49;5.18;;;4.72;;
43952;SDS011;29608;49.400;11.010;2022-08-19T01:17:19;5.32;;;4.93;;
43952;SDS011;29608;49.400;11.010;2022-08-19T01:19:48;4.80;;;4.40;;
43952;SDS011;29608;49.400;11.010;2022-08-19T01:22:18;5.63;;;5.13;;
43952;SDS011;29608;49.400;11.010;2022-08-19T01:24:59;4.88;;;4.50;;
43952;SDS011;29608;49.400;11.010;2022-08-19T01:27:27;5.95;;;5.05;;
43952;SDS011;29608;49.400;11.010;2022-08-19T01:30:09;5.25;;;4.85;;
43952;SDS011;29608;49.400;11.010;2022-08-19T01:32:40;5.95;;;5.45;;
43952;SDS011;29608;49.400;11.010;2022-08-19T01:35:09;5.45;;;5.05;;
43952;SDS011;29608;49.400;11.010;2022-08-19T01:37:45;5.03;;;4.63;;
43952;SDS011;29608;49.400;11.010;2022-08-19T01:40:17;5.75;;;5.15;;
43952;SDS011;29608;49.400;11.010;2022-08-19T01:42:48;5.07;;;4.68;;
43952;SDS011;29608;49.400;11.010;2022-08-19T01:45:17;5.43;;;5.03;;
43952;SDS011;29608;49.400;11.010;2022-08-19T01:47:47;5.95;;;4.70;;
43952;SDS011;29608;49.400;11.010;2022-08-19T01:50:27;5.57;;;5.07;;
43952;SDS011;29608;49.400;11.010;2022-08-19T01:52:58;5.30;;;4.80;;
43952;SDS011;29608;49.400;11.010;2022-08-19T01:55:32;5.75;;;5.13;;
43952;SDS011;29608;49.400;11.010;2022-08-19T01:58:07;5.20;;;4.80;;
43952;SDS011;29608;49.400;11.010;2022-08-19T02:00:39;5.13;;;4.72;;
43952;SDS011;29608;49.400;11.010;2022-08-19T02:03:07;5.18;;;4.78;;
43952;SDS011;29608;49.400;11.010;2022-08-19T02:05:37;6.25;;;5.03;;
43952;SDS011;29608;49.400;11.010;2022-08-19T02:08:07;5.57;;;5.07;;
43952;SDS011;29608;49.400;11.010;2022-08-19T02:10:39;7.28;;;5.38;;
43952;SDS011;29608;49.400;11.010;2022-08-19T02:13:10;5.05;;;4.68;;
43952;SDS011;29608;49.400;11.010;2022-08-19T02:15:39;6.15;;;5.55;;
43952;SDS011;29608;49.400;11.010;2022-08-19T02:18:08;5.95;;;5.45;;
43952;SDS011;29608;49.400;11.010;2022-08-19T02:20:37;5.70;;;5.20;;
43952;SDS011;29608;49.400;11.010;2022-08-19T02:23:06;5.30;;;4.90;;
43952;SDS011;29608;49.400;11.010;2022-08-19T02:25:41;5.95;;;5.45;;
43952;SDS011;29608;49.400;11.010;2022-08-19T02:28:10;6.45;;;5.75;;
43952;SDS011;29608;49.400;11.010;2022-08-19T02:30:43;6.30;;;5.70;;
43952;SDS011;29608;49.400;11.010;2022-08-19T02:33:12;5.85;;;5.35;;
43952;SDS011;29608;49.400;11.010;2022-08-19T02:35:41;5.85;;;5.35;;
43952;SDS011;29608;49.400;11.010;2022-08-19T02:38:11;6.68;;;5.85;;
43952;SDS011;29608;49.400;11.010;2022-08-19T02:40:53;6.13;;;5.57;;
43952;SDS011;29608;49.400;11.010;2022-08-19T02:43:25;6.22;;;5.22;;
43952;SDS011;29608;49.400;11.010;2022-08-19T02:46:00;6.50;;;5.88;;
43952;SDS011;29608;49.400;11.010;2022-08-19T02:48:29;6.63;;;6.13;;
43952;SDS011;29608;49.400;11.010;2022-08-19T02:50:57;6.72;;;6.13;;
43952;SDS011;29608;49.400;11.010;2022-08-19T02:53:27;6.13;;;5.63;;
43952;SDS011;29608;49.400;11.010;2022-08-19T02:55:55;6.80;;;6.20;;
43952;SDS011;29608;49.400;11.010;2022-08-19T02:58:23;6.95;;;6.35;;
43952;SDS011;29608;49.400;11.010;2022-08-19T03:00:54;6.78;;;6.10;;
43952;SDS011;29608;49.400;11.010;2022-08-19T03:05:51;6.32;;;5.72;;
43952;SDS011;29608;49.400;11.010;2022-08-19T03:08:30;6.43;;;5.82;;
43952;SDS011;29608;49.400;11.010;2022-08-19T03:10:58;6.85;;;6.25;;
43952;SDS011;29608;49.400;11.010;2022-08-19T03:13:26;7.90;;;6.57;;
43952;SDS011;29608;49.400;11.010;2022-08-19T03:15:54;6.45;;;5.95;;
43952;SDS011;29608;49.400;11.010;2022-08-19T03:18:22;7.32;;;6.63;;
43952;SDS011;29608;49.400;11.010;2022-08-19T03:20:51;7.88;;;7.18;;
43952;SDS011;29608;49.400;11.010;2022-08-19T03:23:20;7.90;;;7.10;;
43952;SDS011;29608;49.400;11.010;2022-08-19T03:25:52;7.70;;;7.00;;
43952;SDS011;29608;49.400;11.010;2022-08-19T03:28:40;7.80;;;7.10;;
43952;SDS011;29608;49.400;11.010;2022-08-19T03:31:23;7.85;;;7.15;;
43952;SDS011;29608;49.400;11.010;2022-08-19T03:34:11;7.38;;;6.65;;
43952;SDS011;29608;49.400;11.010;2022-08-19T03:36:41;7.20;;;6.60;;
43952;SDS011;29608;49.400;11.010;2022-08-19T03:39:09;8.20;;;7.40;;
43952;SDS011;29608;49.400;11.010;2022-08-19T03:41:40;8.35;;;7.55;;
43952;SDS011;29608;49.400;11.010;2022-08-19T03:44:13;8.10;;;7.32;;
43952;SDS011;29608;49.400;11.010;2022-08-19T03:46:44;8.75;;;7.80;;
43952;SDS011;29608;49.400;11.010;2022-08-19T03:49:14;8.20;;;7.50;;
43952;SDS011;29608;49.400;11.010;2022-08-19T03:51:44;8.80;;;8.00;;
43952;SDS011;29608;49.400;11.010;2022-08-19T03:54:14;8.95;;;8.05;;
43952;SDS011;29608;49.400;11.010;2022-08-19T03:56:47;8.43;;;7.63;;
43952;SDS011;29608;49.400;11.010;2022-08-19T03:59:19;8.38;;;7.57;;
43952;SDS011;29608;49.400;11.010;2022-08-19T04:01:52;8.15;;;7.45;;
43952;SDS011;29608;49.400;11.010;2022-08-19T04:04:21;8.90;;;8.00;;
43952;SDS011;29608;49.400;11.010;2022-08-19T04:06:55;8.98;;;8.07;;
43952;SDS011;29608;49.400;11.010;2022-08-19T04:09:23;9.32;;;8.32;;
43952;SDS011;29608;49.400;11.010;2022-08-19T04:11:54;9.32;;;8.43;;
43952;SDS011;29608;49.400;11.010;2022-08-19T04:14:24;8.45;;;7.65;;
43952;SDS011;29608;49.400;11.010;2022-08-19T04:16:56;9.35;;;8.45;;
43952;SDS011;29608;49.400;11.010;2022-08-19T04:19:25;9.13;;;8.23;;
43952;SDS011;29608;49.400;11.010;2022-08-19T04:21:54;9.57;;;8.68;;
43952;SDS011;29608;49.400;11.010;2022-08-19T04:24:22;9.23;;;8.23;;
43952;SDS011;29608;49.400;11.010;2022-08-19T04:26:50;8.48;;;7.78;;
43952;SDS011;29608;49.400;11.010;2022-08-19T04:29:21;10.55;;;8.73;;
43952;SDS011;29608;49.400;11.010;2022-08-19T04:31:53;8.98;;;8.15;;
43952;SDS011;29608;49.400;11.010;2022-08-19T04:34:24;9.90;;;8.90;;
43952;SDS011;29608;49.400;11.010;2022-08-19T04:36:56;10.20;;;9.20;;
43952;SDS011;29608;49.400;11.010;2022-08-19T04:39:27;9.30;;;8.40;;
43952;SDS011;29608;49.400;11.010;2022-08-19T04:42:13;9.38;;;8.38;;
43952;SDS011;29608;49.400;11.010;2022-08-19T04:44:59;11.82;;;8.75;;
43952;SDS011;29608;49.400;11.010;2022-08-19T04:47:30;9.15;;;7.78;;
43952;SDS011;29608;49.400;11.010;2022-08-19T04:50:18;8.40;;;7.60;;
43952;SDS011;29608;49.400;11.010;2022-08-19T04:52:49;9.90;;;7.85;;
43952;SDS011;29608;49.400;11.010;2022-08-19T04:55:18;11.02;;;8.82;;
43952;SDS011;29608;49.400;11.010;2022-08-19T04:57:48;9.95;;;8.30;;
43952;SDS011;29608;49.400;11.010;2022-08-19T05:00:17;9.52;;;8.52;;
43952;SDS011;29608;49.400;11.010;2022-08-19T05:02:45;9.60;;;8.30;;
43952;SDS011;29608;49.400;11.010;2022-08-19T05:05:15;10.40;;;9.27;;
43952;SDS011;29608;49.400;11.010;2022-08-19T05:07:43;10.18;;;9.18;;
43952;SDS011;29608;49.400;11.010;2022-08-19T05:10:11;10.43;;;8.85;;
43952;SDS011;29608;49.400;11.010;2022-08-19T05:12:39;9.82;;;8.77;;
43952;SDS011;29608;49.400;11.010;2022-08-19T05:15:09;9.38;;;8.45;;
43952;SDS011;29608;49.400;11.010;2022-08-19T05:17:37;9.68;;;8.73;;
43952;SDS011;29608;49.400;11.010;2022-08-19T05:20:26;10.93;;;9.25;;
43952;SDS011;29608;49.400;11.010;2022-08-19T05:23:23;10.13;;;9.13;;
43952;SDS011;29608;49.400;11.010;2022-08-19T05:25:51;10.50;;;9.23;;
43952;SDS011;29608;49.400;11.010;2022-08-19T05:28:19;13.60;;;9.75;;
43952;SDS011;29608;49.400;11.010;2022-08-19T05:30:49;15.07;;;10.95;;
43952;SDS011;29608;49.400;11.010;2022-08-19T05:33:17;10.95;;;9.40;;
43952;SDS011;29608;49.400;11.010;2022-08-19T05:35:45;13.20;;;9.30;;
43952;SDS011;29608;49.400;11.010;2022-08-19T05:38:14;11.63;;;10.23;;
43952;SDS011;29608;49.400;11.010;2022-08-19T05:40:43;11.18;;;9.93;;
43952;SDS011;29608;49.400;11.010;2022-08-19T05:43:15;10.68;;;9.27;;
43952;SDS011;29608;49.400;11.010;2022-08-19T05:45:43;10.07;;;9.02;;
43952;SDS011;29608;49.400;11.010;2022-08-19T05:48:14;11.57;;;10.38;;
43952;SDS011;29608;49.400;11.010;2022-08-19T05:50:43;11.93;;;9.65;;
43952;SDS011;29608;49.400;11.010;2022-08-19T05:53:11;11.20;;;10.10;;
43952;SDS011;29608;49.400;11.010;2022-08-19T05:55:40;11.73;;;9.75;;
43952;SDS011;29608;49.400;11.010;2022-08-19T05:58:08;12.27;;;10.23;;
43952;SDS011;29608;49.400;11.010;2022-08-19T06:00:37;11.45;;;10.20;;
43952;SDS011;29608;49.400;11.010;2022-08-19T06:03:06;11.35;;;9.68;;
43952;SDS011;29608;49.400;11.010;2022-08-19T06:05:39;10.35;;;9.35;;
43952;SDS011;29608;49.400;11.010;2022-08-19T06:08:17;10.70;;;9.60;;
43952;SDS011;29608;49.400;11.010;2022-08-19T06:11:11;10.63;;;9.25;;
43952;SDS011;29608;49.400;11.010;2022-08-19T06:13:41;10.85;;;9.70;;
43952;SDS011;29608;49.400;11.010;2022-08-19T06:16:10;10.98;;;9.48;;
43952;SDS011;29608;49.400;11.010;2022-08-19T06:18:38;10.38;;;9.32;;
43952;SDS011;29608;49.400;11.010;2022-08-19T06:21:07;11.38;;;9.93;;
43952;SDS011;29608;49.400;11.010;2022-08-19T06:23:35;10.30;;;9.20;;
43952;SDS011;29608;49.400;11.010;2022-08-19T06:26:02;10.77;;;9.68;;
43952;SDS011;29608;49.400;11.010;2022-08-19T06:28:30;12.63;;;9.82;;
43952;SDS011;29608;49.400;11.010;2022-08-19T06:31:04;12.00;;;9.93;;
43952;SDS011;29608;49.400;11.010;2022-08-19T06:33:34;11.60;;;10.00;;
43952;SDS011;29608;49.400;11.010;2022-08-19T06:36:04;13.52;;;10.18;;
43952;SDS011;29608;49.400;11.010;2022-08-19T06:38:33;13.30;;;11.50;;
43952;SDS011;29608;49.400;11.010;2022-08-19T06:41:02;12.90;;;10.57;;
43952;SDS011;29608;49.400;11.010;2022-08-19T06:43:33;10.45;;;9.43;;
43952;SDS011;29608;49.400;11.010;2022-08-19T06:46:04;11.40;;;10.27;;
43952;SDS011;29608;49.400;11.010;2022-08-19T06:48:40;10.63;;;8.98;;
43952;SDS011;29608;49.400;11.010;2022-08-19T06:51:11;10.98;;;9.38;;
43952;SDS011;29608;49.400;11.010;2022-08-19T06:53:46;10.02;;;9.05;;
43952;SDS011;29608;49.400;11.010;2022-08-19T06:56:17;13.10;;;9.90;;
43952;SDS011;29608;49.400;11.010;2022-08-19T06:58:51;10.27;;;8.73;;
43952;SDS011;29608;49.400;11.010;2022-08-19T07:01:19;10.48;;;9.38;;
43952;SDS011;29608;49.400;11.010;2022-08-19T07:03:47;9.57;;;8.45;;
43952;SDS011;29608;49.400;11.010;2022-08-19T07:06:16;10.82;;;9.00;;
43952;SDS011;29608;49.400;11.010;2022-08-19T07:09:08;10.70;;;8.65;;
43952;SDS011;29608;49.400;11.010;2022-08-19T07:11:39;10.38;;;8.52;;
43952;SDS011;29608;49.400;11.010;2022-08-19T07:14:12;8.27;;;7.47;;
43952;SDS011;29608;49.400;11.010;2022-08-19T07:16:45;14.63;;;8.23;;
43952;SDS011;29608;49.400;11.010;2022-08-19T07:19:17;7.53;;;6.82;;
43952;SDS011;29608;49.400;11.010;2022-08-19T07:21:47;10.48;;;7.68;;
43952;SDS011;29608;49.400;11.010;2022-08-19T07:24:20;8.18;;;7.30;;
43952;SDS011;29608;49.400;11.010;2022-08-19T07:26:51;7.40;;;6.70;;
43952;SDS011;29608;49.400;11.010;2022-08-19T07:29:21;7.10;;;6.47;;
43952;SDS011;29608;49.400;11.010;2022-08-19T07:31:54;8.90;;;6.38;;
43952;SDS011;29608;49.400;11.010;2022-08-19T07:34:27;6.53;;;5.78;;
43952;SDS011;29608;49.400;11.010;2022-08-19T07:36:57;5.97;;;5.38;;
43952;SDS011;29608;49.400;11.010;2022-08-19T07:39:28;6.35;;;5.75;;
43952;SDS011;29608;49.400;11.010;2022-08-19T07:42:01;6.22;;;5.57;;
43952;SDS011;29608;49.400;11.010;2022-08-19T07:44:39;6.32;;;5.35;;
43952;SDS011;29608;49.400;11.010;2022-08-19T07:47:16;5.95;;;5.35;;
43952;SDS011;29608;49.400;11.010;2022-08-19T07:50:06;5.97;;;5.45;;
43952;SDS011;29608;49.400;11.010;2022-08-19T07:52:38;7.45;;;5.57;;
43952;SDS011;29608;49.400;11.010;2022-08-19T07:55:09;6.35;;;5.78;;
43952;SDS011;29608;49.400;11.010;2022-08-19T07:57:57;6.53;;;5.90;;
43952;SDS011;29608;49.400;11.010;2022-08-19T08:00:27;7.78;;;6.97;;
43952;SDS011;29608;49.400;11.010;2022-08-19T08:02:55;6.50;;;5.90;;
43952;SDS011;29608;49.400;11.010;2022-08-19T08:05:23;6.10;;;5.60;;
43952;SDS011;29608;49.400;11.010;2022-08-19T08:08:09;7.20;;;6.47;;
43952;SDS011;29608;49.400;11.010;2022-08-19T08:11:15;6.53;;;5.93;;
43952;SDS011;29608;49.400;11.010;2022-08-19T08:13:49;5.93;;;5.43;;
43952;SDS011;29608;49.400;11.010;2022-08-19T08:16:30;6.10;;;5.55;;
43952;SDS011;29608;49.400;11.010;2022-08-19T08:19:12;8.52;;;7.00;;
43952;SDS011;29608;49.400;11.010;2022-08-19T08:21:52;6.68;;;6.07;;
43952;SDS011;29608;49.400;11.010;2022-08-19T08:24:21;6.83;;;6.17;;
43952;SDS011;29608;49.400;11.010;2022-08-19T08:26:55;7.00;;;6.30;;
43952;SDS011;29608;49.400;11.010;2022-08-19T08:29:26;6.97;;;6.28;;
43952;SDS011;29608;49.400;11.010;2022-08-19T08:32:00;8.02;;;6.07;;
43952;SDS011;29608;49.400;11.010;2022-08-19T08:34:28;9.00;;;7.07;;
43952;SDS011;29608;49.400;11.010;2022-08-19T08:36:56;8.00;;;6.40;;
43952;SDS011;29608;49.400;11.010;2022-08-19T08:39:24;7.90;;;6.72;;
43952;SDS011;29608;49.400;11.010;2022-08-19T08:41:53;9.98;;;6.90;;
43952;SDS011;29608;49.400;11.010;2022-08-19T08:44:43;7.75;;;7.05;;
43952;SDS011;29608;49.400;11.010;2022-08-19T08:47:26;8.57;;;7.38;;
43952;SDS011;29608;49.400;11.010;2022-08-19T08:50:04;9.68;;;8.68;;
43952;SDS011;29608;49.400;11.010;2022-08-19T08:52:39;8.98;;;7.80;;
43952;SDS011;29608;49.400;11.010;2022-08-19T08:55:13;9.20;;;8.30;;
43952;SDS011;29608;49.400;11.010;2022-08-19T08:57:50;9.52;;;8.15;;
43952;SDS011;29608;49.400;11.010;2022-08-19T09:00:25;9.23;;;8.25;;
43952;SDS011;29608;49.400;11.010;2022-08-19T09:02:57;8.40;;;6.97;;
43952;SDS011;29608;49.400;11.010;2022-08-19T09:05:30;9.10;;;7.30;;
43952;SDS011;29608;49.400;11.010;2022-08-19T09:08:25;9.20;;;8.25;;
43952;SDS011;29608;49.400;11.010;2022-08-19T09:11:11;8.27;;;7.20;;
43952;SDS011;29608;49.400;11.010;2022-08-19T09:14:10;8.30;;;7.45;;
43952;SDS011;29608;49.400;11.010;2022-08-19T09:17:14;10.73;;;7.90;;
43952;SDS011;29608;49.400;11.010;2022-08-19T09:19:49;9.38;;;7.85;;
43952;SDS011;29608;49.400;11.010;2022-08-19T09:22:19;8.77;;;7.88;;
43952;SDS011;29608;49.400;11.010;2022-08-19T09:24:52;8.73;;;7.75;;
43952;SDS011;29608;49.400;11.010;2022-08-19T09:27:22;8.40;;;7.60;;
43952;SDS011;29608;49.400;11.010;2022-08-19T09:30:15;8.52;;;7.38;;
43952;SDS011;29608;49.400;11.010;2022-08-19T09:32:48;8.45;;;7.60;;
43952;SDS011;29608;49.400;11.010;2022-08-19T09:35:18;8.10;;;7.30;;
43952;SDS011;29608;49.400;11.010;2022-08-19T09:37:49;10.25;;;8.05;;
43952;SDS011;29608;49.400;11.010;2022-08-19T09:40:25;8.23;;;7.43;;
43952;SDS011;29608;49.400;11.010;2022-08-19T09:42:55;9.05;;;7.70;;
43952;SDS011;29608;49.400;11.010;2022-08-19T09:45:36;7.57;;;6.90;;
43952;SDS011;29608;49.400;11.010;2022-08-19T09:48:04;10.48;;;6.75;;
43952;SDS011;29608;49.400;11.010;2022-08-19T09:50:34;8.10;;;7.17;;
43952;SDS011;29608;49.400;11.010;2022-08-19T09:53:17;8.55;;;6.43;;
43952;SDS011;29608;49.400;11.010;2022-08-19T09:55:50;8.50;;;7.70;;
43952;SDS011;29608;49.400;11.010;2022-08-19T09:58:19;8.02;;;7.28;;
43952;SDS011;29608;49.400;11.010;2022-08-19T10:00:53;7.40;;;6.70;;
43952;SDS011;29608;49.400;11.010;2022-08-19T10:03:21;8.60;;;7.70;;
43952;SDS011;29608;49.400;11.010;2022-08-19T10:05:56;8.45;;;7.65;;
43952;SDS011;29608;49.400;11.010;2022-08-19T10:08:27;9.60;;;7.88;;
43952;SDS011;29608;49.400;11.010;2022-08-19T10:10:59;9.23;;;7.70;;
43952;SDS011;29608;49.400;11.010;2022-08-19T10:13:48;8.70;;;7.80;;
43952;SDS011;29608;49.400;11.010;2022-08-19T10:16:18;10.75;;;8.88;;
43952;SDS011;29608;49.400;11.010;2022-08-19T10:18:55;8.18;;;7.28;;
43952;SDS011;29608;49.400;11.010;2022-08-19T10:21:25;8.40;;;7.60;;
43952;SDS011;29608;49.400;11.010;2022-08-19T10:23:58;9.77;;;7.53;;
43952;SDS011;29608;49.400;11.010;2022-08-19T10:26:30;14.43;;;8.35;;
43952;SDS011;29608;49.400;11.010;2022-08-19T10:29:03;9.55;;;7.85;;
43952;SDS011;29608;49.400;11.010;2022-08-19T10:31:36;9.15;;;7.70;;
43952;SDS011;29608;49.400;11.010;2022-08-19T10:34:24;9.73;;;8.07;;
43952;SDS011;29608;49.400;11.010;2022-08-19T10:36:53;9.90;;;7.63;;
43952;SDS011;29608;49.400;11.010;2022-08-19T10:39:27;8.90;;;7.97;;
43952;SDS011;29608;49.400;11.010;2022-08-19T10:42:07;8.70;;;7.68;;
43952;SDS011;29608;49.400;11.010;2022-08-19T10:44:36;9.27;;;7.78;;
43952;SDS011;29608;49.400;11.010;2022-08-19T10:47:06;9.25;;;7.28;;
43952;SDS011;29608;49.400;11.010;2022-08-19T10:49:43;10.95;;;8.00;;
43952;SDS011;29608;49.400;11.010;2022-08-19T10:52:28;9.48;;;7.40;;
43952;SDS011;29608;49.400;11.010;2022-08-19T10:55:04;10.65;;;7.55;;
43952;SDS011;29608;49.400;11.010;2022-08-19T10:57:55;8.63;;;7.65;;
43952;SDS011;29608;49.400;11.010;2022-08-19T11:00:28;8.93;;;7.32;;
43952;SDS011;29608;49.400;11.010;2022-08-19T11:02:58;8.05;;;7.25;;
43952;SDS011;29608;49.400;11.010;2022-08-19T11:05:26;8.68;;;7.22;;
43952;SDS011;29608;49.400;11.010;2022-08-19T11:08:01;8.32;;;7.53;;
43952;SDS011;29608;49.400;11.010;2022-08-19T11:10:49;9.77;;;7.00;;
43952;SDS011;29608;49.400;11.010;2022-08-19T11:15:55;9.45;;;6.53;;
43952;SDS011;29608;49.400;11.010;2022-08-19T11:18:33;11.25;;;6.28;;
43952;SDS011;29608;49.400;11.010;2022-08-19T11:21:05;8.57;;;6.72;;
43952;SDS011;29608;49.400;11.010;2022-08-19T11:23:38;7.43;;;6.18;;
43952;SDS011;29608;49.400;11.010;2022-08-19T11:26:07;7.47;;;6.57;;
43952;SDS011;29608;49.400;11.010;2022-08-19T11:28:36;7.72;;;7.00;;
43952;SDS011;29608;49.400;11.010;2022-08-19T11:31:08;8.40;;;7.28;;
43952;SDS011;29608;49.400;11.010;2022-08-19T11:33:40;8.07;;;7.13;;
43952;SDS011;29608;49.400;11.010;2022-08-19T11:36:13;7.20;;;6.45;;
43952;SDS011;29608;49.400;11.010;2022-08-19T11:38:42;8.98;;;7.07;;
43952;SDS011;29608;49.400;11.010;2022-08-19T11:41:10;7.47;;;6.72;;
43952;SDS011;29608;49.400;11.010;2022-08-19T11:43:38;7.30;;;6.60;;
43952;SDS011;29608;49.400;11.010;2022-08-19T11:46:09;6.72;;;6.13;;
43952;SDS011;29608;49.400;11.010;2022-08-19T11:48:42;7.80;;;6.57;;
43952;SDS011;29608;49.400;11.010;2022-08-19T11:51:11;7.95;;;5.93;;
43952;SDS011;29608;49.400;11.010;2022-08-19T11:53:44;6.72;;;6.05;;
43952;SDS011;29608;49.400;11.010;2022-08-19T11:56:13;7.15;;;6.40;;
43952;SDS011;29608;49.400;11.010;2022-08-19T11:58:41;6.50;;;5.85;;
43952;SDS011;29608;49.400;11.010;2022-08-19T12:01:10;7.13;;;6.50;;
43952;SDS011;29608;49.400;11.010;2022-08-19T12:03:43;7.53;;;6.63;;
43952;SDS011;29608;49.400;11.010;2022-08-19T12:06:13;6.80;;;6.10;;
43952;SDS011;29608;49.400;11.010;2022-08-19T12:08:45;6.25;;;5.75;;
43952;SDS011;29608;49.400;11.010;2022-08-19T12:11:14;7.22;;;6.53;;
43952;SDS011;29608;49.400;11.010;2022-08-19T12:13:42;7.72;;;6.38;;
43952;SDS011;29608;49.400;11.010;2022-08-19T12:16:13;15.13;;;6.18;;
43952;SDS011;29608;49.400;11.010;2022-08-19T12:18:46;6.88;;;6.25;;
43952;SDS011;29608;49.400;11.010;2022-08-19T12:21:14;7.65;;;6.85;;
43952;SDS011;29608;49.400;11.010;2022-08-19T12:23:47;10.73;;;6.20;;
43952;SDS011;29608;49.400;11.010;2022-08-19T12:26:21;6.63;;;6.00;;
43952;SDS011;29608;49.400;11.010;2022-08-19T12:28:50;6.70;;;6.10;;
43952;SDS011;29608;49.400;11.010;2022-08-19T12:31:18;7.03;;;6.32;;
43952;SDS011;29608;49.400;11.010;2022-08-19T12:33:48;9.73;;;5.82;;
43952;SDS011;29608;49.400;11.010;2022-08-19T12:36:16;7.05;;;5.90;;
43952;SDS011;29608;49.400;11.010;2022-08-19T12:38:44;6.13;;;5.53;;
43952;SDS011;29608;49.400;11.010;2022-08-19T12:41:17;7.35;;;5.95;;
43952;SDS011;29608;49.400;11.010;2022-08-19T12:43:47;6.90;;;6.25;;
43952;SDS011;29608;49.400;11.010;2022-08-19T12:46:17;6.97;;;6.32;;
43952;SDS011;29608;49.400;11.010;2022-08-19T12:48:50;7.30;;;6.28;;
43952;SDS011;29608;49.400;11.010;2022-08-19T12:51:21;7.05;;;6.45;;
43952;SDS011;29608;49.400;11.010;2022-08-19T12:53:49;6.82;;;6.18;;
43952;SDS011;29608;49.400;11.010;2022-08-19T12:56:17;8.07;;;7.28;;
43952;SDS011;29608;49.400;11.010;2022-08-19T12:58:48;7.20;;;6.47;;
43952;SDS011;29608;49.400;11.010;2022-08-19T13:01:18;6.93;;;6.20;;
43952;SDS011;29608;49.400;11.010;2022-08-19T13:03:48;6.05;;;5.55;;
43952;SDS011;29608;49.400;11.010;2022-08-19T13:08:47;5.30;;;4.50;;
43952;SDS011;29608;49.400;11.010;2022-08-19T13:11:16;5.30;;;4.85;;
43952;SDS011;29608;49.400;11.010;2022-08-19T13:13:50;6.07;;;5.57;;
43952;SDS011;29608;49.400;11.010;2022-08-19T13:16:21;6.13;;;5.57;;
43952;SDS011;29608;49.400;11.010;2022-08-19T13:18:51;7.03;;;5.93;;
43952;SDS011;29608;49.400;11.010;2022-08-19T13:21:19;6.85;;;6.03;;
43952;SDS011;29608;49.400;11.010;2022-08-19T13:23:50;6.25;;;5.65;;
43952;SDS011;29608;49.400;11.010;2022-08-19T13:26:20;6.03;;;5.53;;
43952;SDS011;29608;49.400;11.010;2022-08-19T13:28:49;6.53;;;5.93;;
43952;SDS011;29608;49.400;11.010;2022-08-19T13:31:35;9.57;;;6.25;;
43952;SDS011;29608;49.400;11.010;2022-08-19T13:34:27;6.57;;;5.40;;
43952;SDS011;29608;49.400;11.010;2022-08-19T13:36:59;5.70;;;5.22;;
43952;SDS011;29608;49.400;11.010;2022-08-19T13:39:29;6.10;;;5.50;;
43952;SDS011;29608;49.400;11.010;2022-08-19T13:41:58;8.75;;;5.65;;
43952;SDS011;29608;49.400;11.010;2022-08-19T13:44:27;5.45;;;4.95;;
43952;SDS011;29608;49.400;11.010;2022-08-19T13:47:00;6.63;;;6.05;;
43952;SDS011;29608;49.400;11.010;2022-08-19T13:49:33;6.82;;;6.15;;
43952;SDS011;29608;49.400;11.010;2022-08-19T13:52:03;5.50;;;5.00;;
43952;SDS011;29608;49.400;11.010;2022-08-19T13:54:32;6.43;;;5.88;;
43952;SDS011;29608;49.400;11.010;2022-08-19T13:57:00;7.22;;;6.53;;
43952;SDS011;29608;49.400;11.010;2022-08-19T13:59:28;5.90;;;5.40;;
43952;SDS011;29608;49.400;11.010;2022-08-19T14:01:57;6.07;;;5.55;;
43952;SDS011;29608;49.400;11.010;2022-08-19T14:04:25;6.18;;;5.38;;
43952;SDS011;29608;49.400;11.010;2022-08-19T14:06:55;6.15;;;5.55;;
43952;SDS011;29608;49.400;11.010;2022-08-19T14:09:24;5.65;;;5.20;;
43952;SDS011;29608;49.400;11.010;2022-08-19T14:11:51;7.15;;;6.53;;
43952;SDS011;29608;49.400;11.010;2022-08-19T14:14:19;5.80;;;5.30;;
43952;SDS011;29608;49.400;11.010;2022-08-19T14:16:47;6.18;;;5.63;;
43952;SDS011;29608;49.400;11.010;2022-08-19T14:19:15;6.28;;;5.65;;
43952;SDS011;29608;49.400;11.010;2022-08-19T14:21:43;6.13;;;5.53;;
43952;SDS011;29608;49.400;11.010;2022-08-19T14:24:12;6.63;;;6.03;;
43952;SDS011;29608;49.400;11.010;2022-08-19T14:26:40;6.40;;;5.72;;
43952;SDS011;29608;49.400;11.010;2022-08-19T14:29:08;6.43;;;5.82;;
43952;SDS011;29608;49.400;11.010;2022-08-19T14:31:36;6.43;;;5.82;;
43952;SDS011;29608;49.400;11.010;2022-08-19T14:34:05;6.72;;;6.13;;
43952;SDS011;29608;49.400;11.010;2022-08-19T14:36:33;6.00;;;5.50;;
43952;SDS011;29608;49.400;11.010;2022-08-19T14:41:33;5.50;;;5.03;;
43952;SDS011;29608;49.400;11.010;2022-08-19T14:44:01;6.30;;;5.78;;
43952;SDS011;29608;49.400;11.010;2022-08-19T14:46:29;6.18;;;5.57;;
43952;SDS011;29608;49.400;11.010;2022-08-19T14:48:57;5.43;;;4.85;;
43952;SDS011;29608;49.400;11.010;2022-08-19T14:51:25;4.90;;;4.50;;
43952;SDS011;29608;49.400;11.010;2022-08-19T14:53:53;5.47;;;4.82;;
43952;SDS011;29608;49.400;11.010;2022-08-19T14:56:22;4.90;;;4.35;;
43952;SDS011;29608;49.400;11.010;2022-08-19T14:58:55;4.80;;;4.40;;
43952;SDS011;29608;49.400;11.010;2022-08-19T15:01:27;4.85;;;4.40;;
43952;SDS011;29608;49.400;11.010;2022-08-19T15:03:55;6.20;;;4.43;;
43952;SDS011;29608;49.400;11.010;2022-08-19T15:06:23;5.18;;;4.78;;
43952;SDS011;29608;49.400;11.010;2022-08-19T15:08:52;4.78;;;4.25;;
43952;SDS011;29608;49.400;11.010;2022-08-19T15:11:25;5.10;;;4.55;;
43952;SDS011;29608;49.400;11.010;2022-08-19T15:13:56;9.45;;;4.35;;